IBE843 KGTF-KGTF
Flight info
| Callsign | IBE843 |
|---|---|
| Flight time | 0h 26m |
| Altitude | 23000 |
| Route | TUCKB/HOLD |
| Aircraft | A346/H-SDE2E3FGHIJ3J4J5M1RWXY/LB1D1 |
Departure
| Time | 2026-05-07 08:36 |
|---|---|
| Airport | Great Falls International Airport (KGTF) |
Arrival
| Time | 2026-05-07 09:03 |
|---|---|
| Airport | Great Falls International Airport (KGTF) |
| Time | Latitude | Longitude | Altitude | Speed | Heading |
|---|---|---|---|---|---|
| 2026-05-07 08:36 | 47.37967 | -111.73095 | 12975 ft | 309 kts | 56° |
| 2026-05-07 08:36 | 47.39027 | -111.70328 | 12970 ft | 309 kts | 55° |
| 2026-05-07 08:37 | 47.40089 | -111.67557 | 12976 ft | 310 kts | 59° |
| 2026-05-07 08:37 | 47.40637 | -111.64456 | 12945 ft | 320 kts | 89° |
| 2026-05-07 08:37 | 47.40049 | -111.61283 | 12960 ft | 325 kts | 122° |
| 2026-05-07 08:37 | 47.38483 | -111.58961 | 12973 ft | 320 kts | 154° |
| 2026-05-07 08:38 | 47.36398 | -111.58119 | 12970 ft | 306 kts | 186° |
| 2026-05-07 08:38 | 47.34449 | -111.58918 | 12964 ft | 289 kts | 218° |
| 2026-05-07 08:38 | 47.33058 | -111.60934 | 12976 ft | 277 kts | 242° |
| 2026-05-07 08:38 | 47.32199 | -111.63445 | 12994 ft | 273 kts | 250° |
| 2026-05-07 08:39 | 47.31395 | -111.65994 | 12974 ft | 274 kts | 248° |
| 2026-05-07 08:39 | 47.30527 | -111.68503 | 12974 ft | 275 kts | 246° |
| 2026-05-07 08:39 | 47.29920 | -111.70148 | 12971 ft | 275 kts | 245° |
| 2026-05-07 08:39 | 47.28988 | -111.72627 | 12980 ft | 274 kts | 249° |
| 2026-05-07 08:40 | 47.28567 | -111.75285 | 12959 ft | 264 kts | 275° |
| 2026-05-07 08:40 | 47.29042 | -111.77862 | 12983 ft | 261 kts | 299° |
| 2026-05-07 08:40 | 47.30243 | -111.79857 | 12982 ft | 265 kts | 322° |
| 2026-05-07 08:40 | 47.31966 | -111.80883 | 12984 ft | 274 kts | 347° |
| 2026-05-07 08:41 | 47.33887 | -111.80620 | 12968 ft | 287 kts | 14° |
| 2026-05-07 08:41 | 47.35575 | -111.78955 | 12977 ft | 303 kts | 44° |
| 2026-05-07 08:41 | 47.36728 | -111.76336 | 12999 ft | 309 kts | 54° |
| 2026-05-07 08:41 | 47.37789 | -111.73572 | 12976 ft | 309 kts | 55° |
| 2026-05-07 08:42 | 47.38847 | -111.70803 | 12970 ft | 309 kts | 55° |
| 2026-05-07 08:42 | 47.39911 | -111.68042 | 12975 ft | 310 kts | 56° |
| 2026-05-07 08:42 | 47.40620 | -111.65011 | 12943 ft | 319 kts | 83° |
| 2026-05-07 08:42 | 47.40238 | -111.61775 | 12957 ft | 325 kts | 115° |
| 2026-05-07 08:43 | 47.38824 | -111.59217 | 12965 ft | 322 kts | 148° |
| 2026-05-07 08:43 | 47.36795 | -111.58046 | 12965 ft | 310 kts | 179° |
| 2026-05-07 08:43 | 47.34749 | -111.58524 | 12969 ft | 293 kts | 212° |
| 2026-05-07 08:43 | 47.33235 | -111.60378 | 12985 ft | 278 kts | 238° |
| 2026-05-07 08:44 | 47.32326 | -111.62846 | 12998 ft | 273 kts | 250° |
| 2026-05-07 08:44 | 47.31555 | -111.65404 | 12970 ft | 274 kts | 249° |
| 2026-05-07 08:44 | 47.30726 | -111.67904 | 12973 ft | 275 kts | 247° |
| 2026-05-07 08:44 | 47.29820 | -111.70397 | 12971 ft | 275 kts | 245° |
| 2026-05-07 08:45 | 47.28904 | -111.72876 | 12964 ft | 273 kts | 250° |
| 2026-05-07 08:45 | 47.28576 | -111.75551 | 12955 ft | 263 kts | 277° |
| 2026-05-07 08:45 | 47.29119 | -111.78060 | 12985 ft | 261 kts | 301° |
| 2026-05-07 08:45 | 47.30377 | -111.79991 | 12983 ft | 265 kts | 324° |
| 2026-05-07 08:46 | 47.32129 | -111.80914 | 12985 ft | 275 kts | 349° |
| 2026-05-07 08:46 | 47.34045 | -111.80533 | 12966 ft | 288 kts | 17° |
| 2026-05-07 08:46 | 47.35694 | -111.78749 | 12978 ft | 305 kts | 46° |
| 2026-05-07 08:46 | 47.36835 | -111.76066 | 12989 ft | 310 kts | 54° |
| 2026-05-07 08:47 | 47.37899 | -111.73291 | 12977 ft | 310 kts | 55° |
| 2026-05-07 08:47 | 47.38958 | -111.70524 | 12972 ft | 309 kts | 55° |
| 2026-05-07 08:47 | 47.40022 | -111.67755 | 12974 ft | 310 kts | 57° |
| 2026-05-07 08:47 | 47.40635 | -111.64670 | 12949 ft | 321 kts | 86° |
| 2026-05-07 08:48 | 47.40131 | -111.61454 | 12956 ft | 326 kts | 119° |
| 2026-05-07 08:48 | 47.38649 | -111.59035 | 12971 ft | 321 kts | 150° |
| 2026-05-07 08:48 | 47.36586 | -111.58011 | 12969 ft | 309 kts | 182° |
| 2026-05-07 08:48 | 47.34566 | -111.58641 | 12968 ft | 291 kts | 215° |
| 2026-05-07 08:49 | 47.33122 | -111.60580 | 12979 ft | 277 kts | 240° |
| 2026-05-07 08:49 | 47.32252 | -111.63074 | 12996 ft | 272 kts | 251° |
| 2026-05-07 08:49 | 47.31481 | -111.65631 | 12972 ft | 273 kts | 249° |
| 2026-05-07 08:49 | 47.30637 | -111.68155 | 12974 ft | 274 kts | 246° |
| 2026-05-07 08:50 | 47.29730 | -111.70637 | 12975 ft | 275 kts | 245° |
| 2026-05-07 08:50 | 47.28832 | -111.73124 | 12972 ft | 272 kts | 253° |
| 2026-05-07 08:50 | 47.28597 | -111.75807 | 12961 ft | 263 kts | 279° |
| 2026-05-07 08:50 | 47.29221 | -111.78297 | 12965 ft | 259 kts | 302° |
| 2026-05-07 08:51 | 47.30493 | -111.80142 | 12642 ft | 260 kts | 326° |
| 2026-05-07 08:51 | 47.32236 | -111.80977 | 12154 ft | 271 kts | 351° |
| 2026-05-07 08:51 | 47.34118 | -111.80533 | 11722 ft | 282 kts | 17° |
| 2026-05-07 08:51 | 47.35717 | -111.78760 | 11285 ft | 296 kts | 46° |
| 2026-05-07 08:52 | 47.36814 | -111.76171 | 10929 ft | 298 kts | 55° |
| 2026-05-07 08:52 | 47.37828 | -111.73503 | 10540 ft | 297 kts | 56° |
| 2026-05-07 08:52 | 47.38837 | -111.70848 | 10179 ft | 295 kts | 55° |
| 2026-05-07 08:52 | 47.39851 | -111.68223 | 9831 ft | 293 kts | 57° |
| 2026-05-07 08:53 | 47.40562 | -111.65398 | 9444 ft | 299 kts | 82° |
| 2026-05-07 08:53 | 47.40215 | -111.62386 | 9014 ft | 301 kts | 116° |
| 2026-05-07 08:53 | 47.38865 | -111.60100 | 8613 ft | 296 kts | 150° |
| 2026-05-07 08:53 | 47.36966 | -111.59160 | 8240 ft | 285 kts | 180° |
| 2026-05-07 08:54 | 47.35062 | -111.59574 | 7870 ft | 273 kts | 208° |
| 2026-05-07 08:54 | 47.33582 | -111.61143 | 7473 ft | 262 kts | 234° |
| 2026-05-07 08:54 | 47.32775 | -111.63482 | 7115 ft | 253 kts | 260° |
| 2026-05-07 08:54 | 47.32772 | -111.66032 | 6733 ft | 250 kts | 284° |
| 2026-05-07 08:55 | 47.33525 | -111.68325 | 6327 ft | 251 kts | 308° |
| 2026-05-07 08:55 | 47.34898 | -111.69925 | 5893 ft | 256 kts | 333° |
| 2026-05-07 08:55 | 47.36638 | -111.70468 | 5531 ft | 258 kts | 1° |
| 2026-05-07 08:55 | 47.38369 | -111.69761 | 5476 ft | 263 kts | 27° |
| 2026-05-07 08:56 | 47.39802 | -111.68043 | 5482 ft | 267 kts | 40° |
| 2026-05-07 08:56 | 47.41134 | -111.66118 | 5480 ft | 267 kts | 41° |
| 2026-05-07 08:56 | 47.42454 | -111.64190 | 5468 ft | 266 kts | 41° |
| 2026-05-07 08:56 | 47.43757 | -111.62291 | 5474 ft | 266 kts | 41° |
| 2026-05-07 08:57 | 47.45079 | -111.60372 | 5475 ft | 266 kts | 41° |
| 2026-05-07 08:57 | 47.46422 | -111.58435 | 5474 ft | 265 kts | 40° |
| 2026-05-07 08:57 | 47.47726 | -111.56559 | 5470 ft | 265 kts | 41° |
| 2026-05-07 08:57 | 47.49046 | -111.54653 | 5519 ft | 265 kts | 41° |
| 2026-05-07 08:58 | 47.50360 | -111.52727 | 5522 ft | 265 kts | 42° |
| 2026-05-07 08:58 | 47.51637 | -111.50759 | 5520 ft | 265 kts | 43° |
| 2026-05-07 08:58 | 47.52910 | -111.48769 | 5523 ft | 265 kts | 43° |
| 2026-05-07 08:58 | 47.54182 | -111.46788 | 5527 ft | 265 kts | 43° |
| 2026-05-07 08:59 | 47.55458 | -111.44810 | 5522 ft | 264 kts | 43° |
| 2026-05-07 08:59 | 47.56725 | -111.42844 | 5523 ft | 265 kts | 43° |
| 2026-05-07 08:59 | 47.58000 | -111.40868 | 5527 ft | 265 kts | 43° |
| 2026-05-07 08:59 | 47.59268 | -111.38883 | 5517 ft | 263 kts | 45° |
| 2026-05-07 09:00 | 47.60146 | -111.36567 | 5385 ft | 260 kts | 70° |
| 2026-05-07 09:00 | 47.60320 | -111.33965 | 5395 ft | 251 kts | 94° |
| 2026-05-07 09:00 | 47.59813 | -111.31481 | 5414 ft | 254 kts | 117° |
| 2026-05-07 09:00 | 47.58712 | -111.29440 | 5408 ft | 255 kts | 141° |
| 2026-05-07 09:01 | 47.57175 | -111.28168 | 5313 ft | 252 kts | 165° |
| 2026-05-07 09:01 | 47.55468 | -111.27857 | 5211 ft | 245 kts | 189° |
| 2026-05-07 09:01 | 47.53860 | -111.28492 | 5045 ft | 236 kts | 210° |
| 2026-05-07 09:01 | 47.52540 | -111.29848 | 4804 ft | 226 kts | 227° |
| 2026-05-07 09:02 | 47.51459 | -111.31462 | 4485 ft | 216 kts | 230° |
| 2026-05-07 09:02 | 47.50458 | -111.33038 | 4188 ft | 203 kts | 228° |
| 2026-05-07 09:02 | 47.49515 | -111.34493 | 3869 ft | 188 kts | 228° |
| 2026-05-07 09:02 | 47.48670 | -111.35813 | 3689 ft | 166 kts | 228° |
| 2026-05-07 09:03 | 47.47995 | -111.36809 | 3681 ft | 103 kts | 224° |
| 2026-05-07 09:03 | 47.47651 | -111.37322 | 3683 ft | 49 kts | 226° |
| 2026-05-07 09:03 | 47.47537 | -111.37385 | 3685 ft | 0 kts | 116° |
| 2026-05-07 09:03 | 47.47536 | -111.37384 | 3685 ft | 0 kts | 121° |
| 2026-05-07 09:04 | 47.47535 | -111.37382 | 3685 ft | 0 kts | 125° |
| 2026-05-07 09:09 | 47.47523 | -111.37355 | 3685 ft | 0 kts | 125° |
| 2026-05-07 09:10 | 47.47522 | -111.37354 | 3685 ft | 0 kts | 122° |
| 2026-05-07 09:10 | 47.47512 | -111.37308 | 3686 ft | 7 kts | 88° |
| 2026-05-07 09:10 | 47.47615 | -111.37118 | 3685 ft | 32 kts | 47° |
| 2026-05-07 09:10 | 47.47775 | -111.36870 | 3684 ft | 34 kts | 45° |
| 2026-05-07 09:11 | 47.47948 | -111.36615 | 3682 ft | 36 kts | 44° |
| 2026-05-07 09:11 | 47.48131 | -111.36350 | 3679 ft | 37 kts | 44° |
| 2026-05-07 09:11 | 47.48319 | -111.36073 | 3677 ft | 39 kts | 45° |
| 2026-05-07 09:11 | 47.48510 | -111.35788 | 3675 ft | 39 kts | 45° |
| 2026-05-07 09:12 | 47.48710 | -111.35520 | 3674 ft | 40 kts | 44° |
| 2026-05-07 09:12 | 47.48843 | -111.35327 | 3672 ft | 12 kts | 33° |
| 2026-05-07 09:12 | 47.48862 | -111.35314 | 3671 ft | 0 kts | 9° |
| 2026-05-07 09:13 | 47.48879 | -111.35314 | 3671 ft | 13 kts | 350° |
| 2026-05-07 09:13 | 47.48917 | -111.35447 | 3669 ft | 10 kts | 226° |
| 2026-05-07 09:13 | 47.48912 | -111.35454 | 3670 ft | 1 kts | 226° |
| 2026-05-07 09:13 | 47.48898 | -111.35475 | 3670 ft | 4 kts | 226° |
| 2026-05-07 09:14 | 47.48871 | -111.35517 | 3670 ft | 7 kts | 226° |
| 2026-05-07 09:14 | 47.48612 | -111.35914 | 3675 ft | 109 kts | 224° |
| 2026-05-07 09:14 | 47.47856 | -111.36996 | 3930 ft | 179 kts | 227° |
| 2026-05-07 09:14 | 47.46875 | -111.38448 | 4715 ft | 220 kts | 226° |
| 2026-05-07 09:15 | 47.45662 | -111.40212 | 5454 ft | 273 kts | 226° |
| 2026-05-07 09:15 | 47.44224 | -111.42240 | 6501 ft | 289 kts | 226° |
| 2026-05-07 09:15 | 47.42701 | -111.44167 | 8056 ft | 285 kts | 223° |
| 2026-05-07 09:15 | 47.41167 | -111.45931 | 9658 ft | 281 kts | 222° |
| 2026-05-07 09:16 | 47.39601 | -111.47652 | 11082 ft | 280 kts | 222° |
| 2026-05-07 09:16 | 47.38011 | -111.49352 | 12337 ft | 288 kts | 219° |
| 2026-05-07 09:16 | 47.36095 | -111.50606 | 13195 ft | 318 kts | 199° |
| 2026-05-07 09:16 | 47.33834 | -111.51183 | 14009 ft | 340 kts | 193° |
| 2026-05-07 09:17 | 47.31417 | -111.51635 | 14705 ft | 360 kts | 192° |
| 2026-05-07 09:17 | 47.28858 | -111.52100 | 15373 ft | 380 kts | 192° |
| 2026-05-07 09:17 | 47.26182 | -111.52596 | 16205 ft | 392 kts | 192° |
| 2026-05-07 09:17 | 47.23451 | -111.53109 | 17281 ft | 398 kts | 192° |
| 2026-05-07 09:18 | 47.20694 | -111.53635 | 18389 ft | 403 kts | 192° |
| 2026-05-07 09:18 | 47.17897 | -111.54179 | 19323 ft | 408 kts | 192° |
| 2026-05-07 09:18 | 47.15059 | -111.54743 | 20241 ft | 415 kts | 192° |
| 2026-05-07 09:18 | 47.12175 | -111.55329 | 21165 ft | 421 kts | 192° |
| 2026-05-07 09:19 | 47.09254 | -111.55932 | 22106 ft | 427 kts | 192° |
| 2026-05-07 09:19 | 47.06288 | -111.56556 | 23022 ft | 434 kts | 192° |
| 2026-05-07 09:19 | 47.03277 | -111.57199 | 23841 ft | 440 kts | 192° |
| 2026-05-07 09:19 | 47.00224 | -111.57850 | 24598 ft | 446 kts | 192° |
| 2026-05-07 09:20 | 46.97137 | -111.58512 | 25368 ft | 452 kts | 192° |
| 2026-05-07 09:20 | 46.94004 | -111.59177 | 26129 ft | 457 kts | 192° |
| 2026-05-07 09:20 | 46.90828 | -111.59842 | 26886 ft | 463 kts | 192° |
| 2026-05-07 09:20 | 46.87625 | -111.60504 | 27633 ft | 469 kts | 192° |
| 2026-05-07 09:21 | 46.84371 | -111.61164 | 28381 ft | 474 kts | 192° |
| 2026-05-07 09:21 | 46.81082 | -111.61825 | 29104 ft | 480 kts | 192° |
| 2026-05-07 09:21 | 46.77799 | -111.62477 | 29794 ft | 486 kts | 192° |
| 2026-05-07 09:21 | 46.74386 | -111.63143 | 30397 ft | 492 kts | 193° |
| 2026-05-07 09:22 | 46.70996 | -111.63738 | 30820 ft | 502 kts | 192° |
| 2026-05-07 09:22 | 46.67486 | -111.64308 | 31247 ft | 512 kts | 192° |
| 2026-05-07 09:22 | 46.63915 | -111.64859 | 31759 ft | 519 kts | 192° |
| 2026-05-07 09:22 | 46.60302 | -111.65395 | 32267 ft | 526 kts | 192° |
| 2026-05-07 09:23 | 46.56633 | -111.65919 | 32767 ft | 533 kts | 192° |
| 2026-05-07 09:23 | 46.52920 | -111.66429 | 33227 ft | 540 kts | 192° |
| 2026-05-07 09:23 | 46.49151 | -111.66927 | 33675 ft | 546 kts | 192° |
| 2026-05-07 09:23 | 46.45344 | -111.67416 | 34056 ft | 551 kts | 192° |
| 2026-05-07 09:24 | 46.41504 | -111.67904 | 34414 ft | 555 kts | 192° |
| 2026-05-07 09:24 | 46.37694 | -111.68397 | 34843 ft | 556 kts | 192° |
| 2026-05-07 09:24 | 46.33847 | -111.68904 | 35333 ft | 552 kts | 192° |
| 2026-05-07 09:24 | 46.30110 | -111.69388 | 35714 ft | 526 kts | 192° |
| 2026-05-07 09:25 | 46.26539 | -111.69831 | 35934 ft | 505 kts | 192° |
| 2026-05-07 09:25 | 46.23106 | -111.70239 | 36084 ft | 486 kts | 192° |
| 2026-05-07 09:25 | 46.19788 | -111.70617 | 36161 ft | 470 kts | 192° |
| 2026-05-07 09:25 | 46.16578 | -111.70968 | 36183 ft | 455 kts | 192° |
| 2026-05-07 09:26 | 46.13463 | -111.71296 | 36157 ft | 443 kts | 192° |
| 2026-05-07 09:26 | 46.10427 | -111.71602 | 36037 ft | 431 kts | 192° |
| 2026-05-07 09:26 | 46.07468 | -111.71890 | 35930 ft | 421 kts | 192° |
| 2026-05-07 09:26 | 46.04575 | -111.72160 | 35765 ft | 412 kts | 192° |
| 2026-05-07 09:27 | 46.01745 | -111.72415 | 35556 ft | 404 kts | 193° |
| 2026-05-07 09:27 | 45.98964 | -111.72657 | 35302 ft | 397 kts | 193° |
| 2026-05-07 09:27 | 45.93495 | -111.73128 | 34833 ft | 409 kts | 193° |
| 2026-05-07 09:28 | 45.90582 | -111.73427 | 34671 ft | 430 kts | 193° |
| 2026-05-07 09:28 | 45.88525 | -111.73661 | 34554 ft | 443 kts | 193° |
| 2026-05-07 09:28 | 45.85439 | -111.74041 | 34478 ft | 460 kts | 193° |
| 2026-05-07 09:28 | 45.82182 | -111.74475 | 34477 ft | 476 kts | 193° |
| 2026-05-07 09:29 | 45.80514 | -111.74708 | 34455 ft | 483 kts | 194° |